createdAt,value
2019-03-20T00:02:26.091Z,4.27
2019-03-20T00:05:07.979Z,4.80
2019-03-20T00:07:50.591Z,4.83
2019-03-20T00:10:32.557Z,4.50
2019-03-20T00:13:14.406Z,5.20
2019-03-20T00:15:56.969Z,5.07
2019-03-20T00:18:39.201Z,4.97
2019-03-20T00:21:21.329Z,4.80
2019-03-20T00:24:03.651Z,4.63
2019-03-20T00:26:45.571Z,4.62
2019-03-20T00:29:27.932Z,4.85
2019-03-20T00:32:10.038Z,4.77
2019-03-20T00:35:00.554Z,4.37
2019-03-20T00:37:35.764Z,4.15
2019-03-20T00:40:17.858Z,5.20
2019-03-20T00:43:00.184Z,4.70
2019-03-20T00:45:42.675Z,5.83
2019-03-20T00:48:24.464Z,6.15
2019-03-20T00:51:06.405Z,5.87
2019-03-20T00:53:48.429Z,6.10
2019-03-20T00:56:30.690Z,5.73
2019-03-20T00:59:12.568Z,5.80
2019-03-20T01:01:54.736Z,5.87
2019-03-20T01:04:36.578Z,5.50
2019-03-20T01:07:18.771Z,5.40
2019-03-20T01:10:00.785Z,5.58
2019-03-20T01:12:42.807Z,5.53
2019-03-20T01:15:25.014Z,5.20
2019-03-20T01:18:07.106Z,4.40
2019-03-20T01:20:48.834Z,4.60
2019-03-20T01:23:30.884Z,4.12
2019-03-20T01:26:13.128Z,4.47
2019-03-20T01:28:55.048Z,4.83
2019-03-20T01:31:37.100Z,4.87
2019-03-20T01:34:19.138Z,4.40
2019-03-20T01:37:01.056Z,4.57
2019-03-20T01:39:43.292Z,4.33
2019-03-20T01:42:25.159Z,4.08
2019-03-20T01:45:07.287Z,4.57
2019-03-20T01:47:49.102Z,4.70
2019-03-20T01:50:31.282Z,4.57
2019-03-20T01:53:13.114Z,4.42
2019-03-20T01:55:55.333Z,4.65
2019-03-20T01:58:37.137Z,4.15
2019-03-20T02:01:19.321Z,5.00
2019-03-20T02:04:02.007Z,4.47
2019-03-20T02:06:44.723Z,4.08
2019-03-20T02:09:27.084Z,4.58
2019-03-20T02:12:09.050Z,4.95
2019-03-20T02:14:51.176Z,4.87
2019-03-20T02:17:33.205Z,4.30
2019-03-20T02:20:15.234Z,4.65
2019-03-20T02:22:57.231Z,4.28
2019-03-20T02:25:39.237Z,4.78
2019-03-20T02:28:21.406Z,4.00
2019-03-20T02:31:03.372Z,3.80
2019-03-20T02:33:45.310Z,4.25
2019-03-20T02:36:27.445Z,3.80
2019-03-20T02:39:09.630Z,3.85
2019-03-20T02:41:51.446Z,3.80
2019-03-20T02:44:33.497Z,4.20
2019-03-20T02:47:15.550Z,4.50
2019-03-20T02:49:57.728Z,4.22
2019-03-20T02:52:39.791Z,4.20
2019-03-20T02:55:21.505Z,4.83
2019-03-20T02:58:03.621Z,4.45
2019-03-20T03:00:45.592Z,3.85
2019-03-20T03:03:27.483Z,4.08
2019-03-20T03:06:09.313Z,4.00
2019-03-20T03:08:51.182Z,4.08
2019-03-20T03:11:33.283Z,3.83
2019-03-20T03:14:15.677Z,4.10
2019-03-20T03:16:57.767Z,3.70
2019-03-20T03:19:39.847Z,4.53
2019-03-20T03:22:22.494Z,3.90
2019-03-20T03:25:04.474Z,3.98
2019-03-20T03:27:46.716Z,3.77
2019-03-20T03:30:28.655Z,4.03
2019-03-20T03:33:10.988Z,4.30
2019-03-20T03:35:53.128Z,3.47
2019-03-20T03:38:23.999Z,3.92
2019-03-20T03:40:54.760Z,3.95
2019-03-20T03:43:25.420Z,4.25
2019-03-20T03:45:56.281Z,3.98
2019-03-20T03:48:26.897Z,4.53
2019-03-20T03:50:57.489Z,4.15
2019-03-20T03:53:28.316Z,4.17
2019-03-20T03:55:58.979Z,4.40
2019-03-20T03:58:32.650Z,4.90
2019-03-20T04:01:01.723Z,4.10
2019-03-20T04:03:32.254Z,3.98
2019-03-20T04:06:02.816Z,4.30
2019-03-20T04:08:33.388Z,4.25
2019-03-20T04:11:04.370Z,4.08
2019-03-20T04:13:35.214Z,4.50
2019-03-20T04:16:05.872Z,4.20
2019-03-20T04:18:36.511Z,3.52
2019-03-20T04:21:07.104Z,3.60
2019-03-20T04:23:37.670Z,3.90
2019-03-20T04:26:08.143Z,4.15
2019-03-20T04:28:38.824Z,3.90
2019-03-20T04:31:09.624Z,4.28
2019-03-20T04:33:40.699Z,4.50
2019-03-20T04:36:11.446Z,4.50
2019-03-20T04:38:42.007Z,4.20
2019-03-20T04:41:14.391Z,3.83
2019-03-20T04:43:44.940Z,4.00
2019-03-20T04:46:15.968Z,4.50
2019-03-20T04:48:46.475Z,4.85
2019-03-20T04:51:17.200Z,4.80
2019-03-20T04:53:47.798Z,4.83
2019-03-20T04:56:18.463Z,4.65
2019-03-20T04:58:49.125Z,4.35
2019-03-20T05:01:19.718Z,4.30
2019-03-20T05:03:51.513Z,4.53
2019-03-20T05:06:21.998Z,4.97
2019-03-20T05:08:54.725Z,5.47
2019-03-20T05:11:25.933Z,4.67
2019-03-20T05:13:56.526Z,5.30
2019-03-20T05:16:27.198Z,5.53
2019-03-20T05:18:57.725Z,5.30
2019-03-20T05:21:30.031Z,5.47
2019-03-20T05:24:00.544Z,5.95
2019-03-20T05:26:31.157Z,5.75
2019-03-20T05:29:01.923Z,5.87
2019-03-20T05:31:32.976Z,4.90
2019-03-20T05:34:03.749Z,5.65
2019-03-20T05:36:34.453Z,5.10
2019-03-20T05:39:07.475Z,5.35
2019-03-20T05:41:57.152Z,4.25
2019-03-20T05:44:28.639Z,4.50
2019-03-20T05:46:59.455Z,4.55
2019-03-20T05:49:30.175Z,5.33
2019-03-20T05:52:00.929Z,6.78
2019-03-20T05:54:31.529Z,7.28
2019-03-20T05:57:02.423Z,6.58
2019-03-20T05:59:32.972Z,5.87
2019-03-20T06:02:03.635Z,5.85
2019-03-20T06:04:34.159Z,6.42
2019-03-20T06:07:04.765Z,6.22
2019-03-20T06:09:35.220Z,6.55
2019-03-20T06:12:06.107Z,6.50
2019-03-20T06:14:36.722Z,6.78
2019-03-20T06:17:07.317Z,7.53
2019-03-20T06:19:38.108Z,7.28
2019-03-20T06:22:09.101Z,6.40
2019-03-20T06:24:39.853Z,5.60
2019-03-20T06:27:10.492Z,5.20
2019-03-20T06:29:41.092Z,4.95
2019-03-20T06:32:12.079Z,4.62
2019-03-20T06:34:44.101Z,5.00
2019-03-20T06:37:14.857Z,4.70
2019-03-20T06:39:45.486Z,4.75
2019-03-20T06:42:16.232Z,4.90
2019-03-20T06:44:47.554Z,5.12
2019-03-20T06:47:18.321Z,5.75
2019-03-20T06:49:48.925Z,5.70
2019-03-20T06:52:19.846Z,5.30
2019-03-20T06:54:50.613Z,4.90
2019-03-20T06:57:21.423Z,4.85
2019-03-20T07:00:28.904Z,4.70
2019-03-20T07:03:00.563Z,4.95
2019-03-20T07:05:52.628Z,4.65
2019-03-20T07:08:24.891Z,4.55
2019-03-20T07:11:10.094Z,4.55
2019-03-20T07:13:40.729Z,4.33
2019-03-20T07:16:11.663Z,4.50
2019-03-20T07:18:42.671Z,4.40
2019-03-20T07:21:13.509Z,4.60
2019-03-20T07:23:44.152Z,4.22
2019-03-20T07:26:14.807Z,4.35
2019-03-20T07:28:45.275Z,4.33
2019-03-20T07:31:16.182Z,4.60
2019-03-20T07:33:46.678Z,4.12
2019-03-20T07:36:17.093Z,4.67
2019-03-20T07:38:47.726Z,5.47
2019-03-20T07:41:18.409Z,4.57
2019-03-20T07:43:49.173Z,4.42
2019-03-20T07:46:19.755Z,4.65
2019-03-20T07:48:50.263Z,4.30
2019-03-20T07:51:20.915Z,4.60
2019-03-20T07:53:51.875Z,4.57
2019-03-20T07:56:22.739Z,4.17
2019-03-20T07:58:53.767Z,3.97
2019-03-20T08:01:24.207Z,4.17
2019-03-20T08:03:54.781Z,4.50
2019-03-20T08:06:25.293Z,3.60
2019-03-20T08:08:56.427Z,4.60
2019-03-20T08:11:27.049Z,4.55
2019-03-20T08:13:57.615Z,4.57
2019-03-20T08:16:28.227Z,3.93
2019-03-20T08:18:58.740Z,4.60
2019-03-20T08:21:29.412Z,4.43
2019-03-20T08:24:00.123Z,5.17
2019-03-20T08:26:30.974Z,4.80
2019-03-20T08:29:01.535Z,5.00
2019-03-20T08:31:33.092Z,5.30
2019-03-20T08:34:03.765Z,5.00
2019-03-20T08:36:34.419Z,4.90
2019-03-20T08:39:24.033Z,5.77
2019-03-20T08:41:55.287Z,5.37
2019-03-20T08:44:25.763Z,4.90
2019-03-20T08:46:57.877Z,5.50
2019-03-20T08:49:28.597Z,5.00
2019-03-20T08:51:59.119Z,4.83
2019-03-20T08:54:31.603Z,4.03
2019-03-20T08:57:02.329Z,3.70
2019-03-20T08:59:32.899Z,4.53
2019-03-20T09:02:03.430Z,4.27
2019-03-20T09:04:35.791Z,3.53
2019-03-20T09:07:06.353Z,4.10
2019-03-20T09:09:36.902Z,4.47
2019-03-20T09:12:07.576Z,4.73
2019-03-20T09:14:38.305Z,4.20
2019-03-20T09:17:08.831Z,5.17
2019-03-20T09:19:40.561Z,4.60
2019-03-20T09:22:11.260Z,4.60
2019-03-20T09:24:42.119Z,4.23
2019-03-20T09:27:12.626Z,3.90
2019-03-20T09:29:43.255Z,3.60
2019-03-20T09:32:13.811Z,4.30
2019-03-20T09:34:44.300Z,3.67
2019-03-20T09:37:14.923Z,3.00
2019-03-20T09:39:45.510Z,3.57
2019-03-20T09:42:16.128Z,3.60
2019-03-20T09:44:46.728Z,3.43
2019-03-20T09:47:17.447Z,4.17
2019-03-20T09:49:48.063Z,2.80
2019-03-20T09:52:18.713Z,2.43
2019-03-20T09:54:49.357Z,2.67
2019-03-20T09:57:19.955Z,2.87
2019-03-20T09:59:50.452Z,2.27
2019-03-20T10:02:21.014Z,2.20
2019-03-20T10:04:51.634Z,2.43
2019-03-20T10:07:22.276Z,2.07
2019-03-20T10:09:52.781Z,2.53
2019-03-20T10:12:23.569Z,2.30
2019-03-20T10:14:55.487Z,2.57
2019-03-20T10:17:26.037Z,2.50
2019-03-20T10:19:56.563Z,3.00
2019-03-20T10:22:27.413Z,2.60
2019-03-20T10:24:58.587Z,2.40
2019-03-20T10:27:30.590Z,2.50
2019-03-20T10:30:01.163Z,2.30
2019-03-20T10:32:32.094Z,2.70
2019-03-20T10:35:02.755Z,2.50
2019-03-20T10:37:33.206Z,2.27
2019-03-20T10:40:05.864Z,2.73
2019-03-20T10:42:36.884Z,1.93
2019-03-20T10:45:08.389Z,2.53
2019-03-20T10:47:39.057Z,2.27
2019-03-20T10:50:12.229Z,2.83
2019-03-20T10:52:43.073Z,2.90
2019-03-20T10:55:14.087Z,2.27
2019-03-20T10:57:44.647Z,3.03
2019-03-20T11:00:19.465Z,2.33
2019-03-20T11:02:50.029Z,2.27
2019-03-20T11:05:21.245Z,2.70
2019-03-20T11:07:51.800Z,2.23
2019-03-20T11:10:23.025Z,2.67
2019-03-20T11:13:12.636Z,2.20
2019-03-20T11:15:43.687Z,2.13
2019-03-20T11:18:14.289Z,2.53
2019-03-20T11:20:44.769Z,2.00
2019-03-20T11:23:15.242Z,2.20
2019-03-20T11:25:45.751Z,1.90
2019-03-20T11:28:16.203Z,3.00
2019-03-20T11:30:46.814Z,3.30
2019-03-20T11:33:17.363Z,2.60
2019-03-20T11:35:47.898Z,2.10
2019-03-20T11:38:18.634Z,2.00
2019-03-20T11:40:49.246Z,1.87
2019-03-20T11:43:19.783Z,2.53
2019-03-20T11:45:50.916Z,2.20
2019-03-20T11:48:21.756Z,2.20
2019-03-20T11:50:52.952Z,2.40
2019-03-20T11:53:23.580Z,2.17
2019-03-20T11:55:54.206Z,2.10
2019-03-20T11:58:25.107Z,2.20
2019-03-20T12:00:56.768Z,2.50
2019-03-20T12:03:27.485Z,2.50
2019-03-20T12:05:58.191Z,2.07
2019-03-20T12:08:29.025Z,2.17
2019-03-20T12:10:59.869Z,2.47
2019-03-20T12:13:31.079Z,1.87
2019-03-20T12:16:02.474Z,1.80
2019-03-20T12:18:33.398Z,1.80
2019-03-20T12:21:04.015Z,2.43
2019-03-20T12:23:34.702Z,2.20
2019-03-20T12:26:05.657Z,1.73
2019-03-20T12:28:39.842Z,1.97
2019-03-20T12:31:10.404Z,2.37
2019-03-20T12:33:41.203Z,2.10
2019-03-20T12:36:11.891Z,2.30
2019-03-20T12:38:42.481Z,2.80
2019-03-20T12:41:13.377Z,2.87
2019-03-20T12:43:45.514Z,2.10
2019-03-20T12:46:16.413Z,2.10
2019-03-20T12:48:47.286Z,2.60
2019-03-20T12:51:17.831Z,2.73
2019-03-20T12:53:50.247Z,2.20
2019-03-20T12:56:20.848Z,2.07
2019-03-20T12:58:51.452Z,2.20
2019-03-20T13:01:22.168Z,2.40
2019-03-20T13:03:54.006Z,2.40
2019-03-20T13:06:24.608Z,2.10
2019-03-20T13:08:55.913Z,2.30
2019-03-20T13:11:26.547Z,2.07
2019-03-20T13:13:57.139Z,2.70
2019-03-20T13:16:29.615Z,2.30
2019-03-20T13:19:01.149Z,2.60
2019-03-20T13:21:31.991Z,2.20
2019-03-20T13:24:02.591Z,2.30
2019-03-20T13:26:33.694Z,2.33
2019-03-20T13:29:04.449Z,1.93
2019-03-20T13:31:35.444Z,1.80
2019-03-20T13:34:05.990Z,1.87
2019-03-20T13:36:36.602Z,1.57
2019-03-20T13:39:08.499Z,2.60
2019-03-20T13:41:39.068Z,2.03
2019-03-20T13:44:10.914Z,1.77
2019-03-20T13:46:42.605Z,2.00
2019-03-20T13:49:13.161Z,2.77
2019-03-20T13:51:43.769Z,2.23
2019-03-20T13:54:14.537Z,2.03
2019-03-20T13:56:45.117Z,2.27
2019-03-20T13:59:15.675Z,2.20
2019-03-20T14:01:46.460Z,2.43
2019-03-20T14:04:36.271Z,1.90
2019-03-20T14:07:07.048Z,2.10
2019-03-20T14:09:37.777Z,2.60
2019-03-20T14:12:08.535Z,1.93
2019-03-20T14:14:40.079Z,2.30
2019-03-20T14:17:10.714Z,2.17
2019-03-20T14:20:00.682Z,2.13
2019-03-20T14:22:50.231Z,2.17
2019-03-20T14:25:21.085Z,2.50
2019-03-20T14:27:51.689Z,1.90
2019-03-20T14:30:24.026Z,2.63
2019-03-20T14:32:54.728Z,2.30
2019-03-20T14:35:25.291Z,2.20
2019-03-20T14:37:56.165Z,2.50
2019-03-20T14:40:35.407Z,2.17
2019-03-20T14:43:00.465Z,1.80
2019-03-20T14:45:31.287Z,2.33
2019-03-20T14:48:03.103Z,2.00
2019-03-20T14:50:33.647Z,2.23
2019-03-20T14:53:06.123Z,2.23
2019-03-20T14:55:38.426Z,2.50
2019-03-20T14:58:10.773Z,2.27
2019-03-20T15:00:41.373Z,2.50
2019-03-20T15:03:11.930Z,2.20
2019-03-20T15:05:42.619Z,2.30
2019-03-20T15:08:13.193Z,2.30
2019-03-20T15:10:46.124Z,2.40
2019-03-20T15:13:16.290Z,1.80
2019-03-20T15:15:50.053Z,2.10
2019-03-20T15:18:20.851Z,2.47
2019-03-20T15:20:51.720Z,2.63
2019-03-20T15:23:22.583Z,2.30
2019-03-20T15:25:53.145Z,2.10
2019-03-20T15:28:23.869Z,2.10
2019-03-20T15:30:54.933Z,1.90
2019-03-20T15:33:25.502Z,2.20
2019-03-20T15:35:56.365Z,2.13
2019-03-20T15:38:27.019Z,2.20
2019-03-20T15:40:57.471Z,2.47
2019-03-20T15:43:28.083Z,2.00
2019-03-20T15:45:58.847Z,1.63
2019-03-20T15:48:29.664Z,2.20
2019-03-20T15:51:02.070Z,1.70
2019-03-20T15:53:32.709Z,2.00
2019-03-20T15:56:03.299Z,2.00
2019-03-20T15:58:33.896Z,2.00
2019-03-20T16:01:04.566Z,2.20
2019-03-20T16:03:35.233Z,2.20
2019-03-20T16:06:05.770Z,1.80
2019-03-20T16:08:36.713Z,1.67
2019-03-20T16:11:07.236Z,2.23
2019-03-20T16:13:37.965Z,2.10
2019-03-20T16:16:08.632Z,2.30
2019-03-20T16:18:39.251Z,1.83
2019-03-20T16:21:09.887Z,1.50
2019-03-20T16:23:41.561Z,1.73
2019-03-20T16:26:12.215Z,2.00
2019-03-20T16:28:42.886Z,2.13
2019-03-20T16:31:13.415Z,2.20
2019-03-20T16:33:44.103Z,2.30
2019-03-20T16:36:14.626Z,2.30
2019-03-20T16:38:45.247Z,2.30
2019-03-20T16:41:17.046Z,1.80
2019-03-20T16:43:47.677Z,2.07
2019-03-20T16:46:18.287Z,1.83
2019-03-20T16:48:50.394Z,1.80
2019-03-20T16:51:21.235Z,1.93
2019-03-20T16:53:52.175Z,1.90
2019-03-20T16:56:22.880Z,2.13
2019-03-20T16:58:53.557Z,2.10
2019-03-20T17:01:24.532Z,2.30
2019-03-20T17:03:55.141Z,2.30
2019-03-20T17:06:25.811Z,1.83
2019-03-20T17:08:56.911Z,2.60
2019-03-20T17:11:38.091Z,2.43
2019-03-20T17:14:01.713Z,2.07
2019-03-20T17:16:32.587Z,2.60
2019-03-20T17:19:03.273Z,4.00
2019-03-20T17:21:33.873Z,6.90
2019-03-20T17:24:04.843Z,4.80
2019-03-20T17:26:35.433Z,2.90
2019-03-20T17:29:09.163Z,2.20
2019-03-20T17:31:38.315Z,2.20
2019-03-20T17:34:09.117Z,2.30
2019-03-20T17:36:39.739Z,2.17
2019-03-20T17:39:12.542Z,2.50
2019-03-20T17:41:43.244Z,2.90
2019-03-20T17:44:13.883Z,2.10
2019-03-20T17:46:44.527Z,2.70
2019-03-20T17:49:15.273Z,2.43
2019-03-20T17:51:47.859Z,2.70
2019-03-20T17:54:18.541Z,2.60
2019-03-20T17:56:49.316Z,2.90
2019-03-20T17:59:20.087Z,2.77
2019-03-20T18:01:50.640Z,3.17
2019-03-20T18:04:21.543Z,3.20
2019-03-20T18:06:52.453Z,2.43
2019-03-20T18:09:22.937Z,3.20
2019-03-20T18:11:53.667Z,3.03
2019-03-20T18:14:25.272Z,2.50
2019-03-20T18:17:14.880Z,2.80
2019-03-20T18:19:45.587Z,3.63
2019-03-20T18:22:16.284Z,3.93
2019-03-20T18:24:46.979Z,4.13
2019-03-20T18:27:17.964Z,5.03
2019-03-20T18:29:48.645Z,5.70
2019-03-20T18:32:19.109Z,6.00
2019-03-20T18:34:49.651Z,7.60
2019-03-20T18:37:20.540Z,7.10
2019-03-20T18:39:52.810Z,7.37
2019-03-20T18:42:23.385Z,7.57
2019-03-20T18:44:54.045Z,7.70
2019-03-20T18:47:26.124Z,7.17
2019-03-20T18:49:56.764Z,7.00
2019-03-20T18:52:27.611Z,5.70
2019-03-20T18:54:58.128Z,5.40
2019-03-20T18:57:48.221Z,5.20
2019-03-20T19:00:20.905Z,4.87
2019-03-20T19:02:51.953Z,4.57
2019-03-20T19:05:34.968Z,5.93
2019-03-20T19:08:06.232Z,5.37
2019-03-20T19:10:36.892Z,6.20
2019-03-20T19:13:09.084Z,5.67
2019-03-20T19:15:39.545Z,4.83
2019-03-20T19:18:11.117Z,5.30
2019-03-20T19:20:45.433Z,4.87
2019-03-20T19:23:16.191Z,4.77
2019-03-20T19:25:47.905Z,4.57
2019-03-20T19:28:18.686Z,5.00
2019-03-20T19:30:49.528Z,4.93
2019-03-20T19:33:20.045Z,4.53
2019-03-20T19:35:50.773Z,4.60
2019-03-20T19:38:21.315Z,4.07
2019-03-20T19:40:52.491Z,3.97
2019-03-20T19:43:23.090Z,3.80
2019-03-20T19:45:53.779Z,3.53
2019-03-20T19:48:24.394Z,4.80
2019-03-20T19:50:55.055Z,3.70
2019-03-20T19:53:26.055Z,4.30
2019-03-20T19:55:56.613Z,4.00
2019-03-20T19:58:27.243Z,4.30
2019-03-20T20:00:57.986Z,4.30
2019-03-20T20:03:28.830Z,5.00
2019-03-20T20:05:59.357Z,4.97
2019-03-20T20:08:29.927Z,6.50
2019-03-20T20:11:00.901Z,5.90
2019-03-20T20:13:31.612Z,5.17
2019-03-20T20:16:02.302Z,4.53
2019-03-20T20:18:33.077Z,4.57
2019-03-20T20:21:03.841Z,3.70
2019-03-20T20:23:34.500Z,4.03
2019-03-20T20:26:06.070Z,4.30
2019-03-20T20:28:36.678Z,4.40
2019-03-20T20:31:07.509Z,4.63
2019-03-20T20:33:38.350Z,5.30
2019-03-20T20:36:09.001Z,6.00
2019-03-20T20:38:39.771Z,7.30
2019-03-20T20:41:11.716Z,7.77
2019-03-20T20:43:42.328Z,6.23
2019-03-20T20:46:12.914Z,5.30
2019-03-20T20:48:43.660Z,5.20
2019-03-20T20:51:14.357Z,5.23
2019-03-20T20:53:44.955Z,4.83
2019-03-20T20:56:15.587Z,5.37
2019-03-20T20:58:46.135Z,5.33
2019-03-20T21:01:17.033Z,4.87
2019-03-20T21:03:47.630Z,4.93
2019-03-20T21:06:18.645Z,5.97
2019-03-20T21:08:49.436Z,6.43
2019-03-20T21:11:19.951Z,5.27
2019-03-20T21:13:51.299Z,5.40
2019-03-20T21:16:22.666Z,5.60
2019-03-20T21:19:34.395Z,6.10
2019-03-20T21:22:46.798Z,7.70
2019-03-20T21:25:19.588Z,8.50
2019-03-20T21:28:33.176Z,7.97
2019-03-20T21:31:54.040Z,7.03
2019-03-20T21:35:08.600Z,8.00
2019-03-20T21:38:05.813Z,6.80
2019-03-20T21:40:56.257Z,7.50
2019-03-20T21:44:07.536Z,7.83
2019-03-20T21:47:14.029Z,7.30
2019-03-20T21:49:45.339Z,7.83
2019-03-20T21:52:17.681Z,8.13
2019-03-20T21:55:33.657Z,9.90
2019-03-20T21:58:30.867Z,7.97
2019-03-20T22:01:57.765Z,7.37
2019-03-20T22:04:29.188Z,6.97
2019-03-20T22:07:12.952Z,6.07
2019-03-20T22:10:39.994Z,6.30
2019-03-20T22:13:34.043Z,5.57
2019-03-20T22:16:53.321Z,6.27
2019-03-20T22:20:09.184Z,8.87
2019-03-20T22:23:39.056Z,9.70
2019-03-20T22:27:08.728Z,9.17
2019-03-20T22:29:40.684Z,8.80
2019-03-20T22:33:03.827Z,9.73
2019-03-20T22:35:48.667Z,9.17
2019-03-20T22:38:42.382Z,8.40
2019-03-20T22:41:25.649Z,9.03
2019-03-20T22:44:00.999Z,9.70
2019-03-20T22:47:14.749Z,9.63
2019-03-20T22:50:16.589Z,8.50
2019-03-20T22:53:15.287Z,6.73
2019-03-20T22:56:29.979Z,6.20
2019-03-20T22:59:01.667Z,6.60
2019-03-20T23:01:55.182Z,5.90
2019-03-20T23:04:30.739Z,5.37
2019-03-20T23:07:01.782Z,5.27
2019-03-20T23:09:33.984Z,5.90
2019-03-20T23:12:08.297Z,5.90
2019-03-20T23:14:39.391Z,6.77
2019-03-20T23:17:10.639Z,6.13
2019-03-20T23:19:42.793Z,5.40
2019-03-20T23:22:13.875Z,6.27
2019-03-20T23:24:45.936Z,5.87
2019-03-20T23:27:20.562Z,5.40
2019-03-20T23:29:51.781Z,5.20
2019-03-20T23:32:22.712Z,5.30
2019-03-20T23:34:53.787Z,5.50
2019-03-20T23:37:25.121Z,5.97
2019-03-20T23:39:57.479Z,4.93
2019-03-20T23:42:29.039Z,5.40
2019-03-20T23:45:00.397Z,4.93
2019-03-20T23:47:56.461Z,5.20
2019-03-20T23:50:27.639Z,5.63
2019-03-20T23:52:59.921Z,5.07
2019-03-20T23:55:32.063Z,5.97
2019-03-20T23:58:03.349Z,5.43
